Time;durP1;ratioP1;P1;durP2;ratioP2;P2;SDS_P1;SDS_P2;PMS_P1;PMS_P2;Temp;Humidity;BMP_temperature;BMP_pressure;BME280_temperature;BME280_humidity;BME280_pressure;Samples;Min_cycle;Max_cycle;Signal;HPM_P1;HPM_P2
2021/04/30 00:01:10;;;;;;;6.05;4.50;;;10.10;53.90;;;;;;5077882;28;20021;-70
2021/04/30 00:03:36;;;;;;;5.95;4.10;;;10.00;53.90;;;;;;5076432;28;20020;-70
2021/04/30 00:06:02;;;;;;;7.57;4.47;;;10.00;53.90;;;;;;5077784;28;20016;-70
2021/04/30 00:08:28;;;;;;;7.70;4.05;;;10.00;54.00;;;;;;5061574;28;20025;-70
2021/04/30 00:10:54;;;;;;;5.78;4.07;;;9.90;53.90;;;;;;5085890;28;20032;-70
2021/04/30 00:13:19;;;;;;;8.50;5.15;;;9.90;54.00;;;;;;5077126;28;20032;-70
2021/04/30 00:15:45;;;;;;;7.03;3.95;;;9.90;54.10;;;;;;5071581;28;20052;-70
2021/04/30 00:18:12;;;;;;;6.93;4.22;;;9.80;53.90;;;;;;5070493;28;20036;-70
2021/04/30 00:20:41;;;;;;;8.38;4.90;;;9.80;54.00;;;;;;5070663;28;20021;-70
2021/04/30 00:23:12;;;;;;;7.13;4.50;;;9.70;53.90;;;;;;5059747;28;20075;-70
2021/04/30 00:25:39;;;;;;;7.22;4.57;;;9.70;54.10;;;;;;5071097;28;20017;-70
2021/04/30 00:28:05;;;;;;;8.07;5.18;;;9.70;54.20;;;;;;5077622;28;20195;-70
2021/04/30 00:30:31;;;;;;;7.78;4.68;;;9.60;54.30;;;;;;5078552;28;20056;-70
2021/04/30 00:32:57;;;;;;;8.07;4.90;;;9.60;54.10;;;;;;5079700;28;20052;-70
2021/04/30 00:35:22;;;;;;;8.93;4.70;;;9.60;54.20;;;;;;5077287;28;20099;-70
2021/04/30 00:37:48;;;;;;;7.40;4.68;;;9.50;54.20;;;;;;5075444;28;20155;-70
2021/04/30 00:40:14;;;;;;;6.82;4.38;;;9.50;54.50;;;;;;5076882;28;20024;-70
2021/04/30 00:42:40;;;;;;;8.90;4.72;;;9.50;54.40;;;;;;5076420;28;20027;-70
2021/04/30 00:45:08;;;;;;;7.22;4.78;;;9.40;54.30;;;;;;5071431;28;20551;-70
2021/04/30 00:47:37;;;;;;;6.97;4.78;;;9.40;54.50;;;;;;5068425;28;20029;-70
2021/04/30 00:50:08;;;;;;;7.03;4.50;;;9.40;54.60;;;;;;5076822;28;20035;-70
2021/04/30 00:52:36;;;;;;;9.90;5.57;;;9.40;54.60;;;;;;5069160;28;20477;-70
2021/04/30 00:55:04;;;;;;;6.85;4.70;;;9.30;54.60;;;;;;5074279;28;20103;-70
2021/04/30 00:57:30;;;;;;;10.60;6.20;;;9.30;54.80;;;;;;5077474;28;20039;-70
2021/04/30 00:59:57;;;;;;;8.68;5.35;;;9.30;54.70;;;;;;5076193;28;20084;-70
2021/04/30 01:02:23;;;;;;;7.25;4.90;;;9.20;54.70;;;;;;5076398;28;20459;-70
2021/04/30 01:04:49;;;;;;;7.00;4.55;;;9.20;54.80;;;;;;5076374;28;20043;-70
2021/04/30 01:07:15;;;;;;;7.15;4.38;;;9.20;54.90;;;;;;5076894;28;20024;-70
2021/04/30 01:09:40;;;;;;;8.95;4.95;;;9.10;54.60;;;;;;5062209;28;20025;-70
2021/04/30 01:12:08;;;;;;;6.45;4.45;;;9.10;54.70;;;;;;5077193;28;20054;-70
2021/04/30 01:14:34;;;;;;;8.07;4.53;;;9.10;54.90;;;;;;5075670;28;20031;-70
2021/04/30 01:17:00;;;;;;;6.70;4.35;;;9.10;54.90;;;;;;5076677;28;20028;-70
2021/04/30 01:19:27;;;;;;;6.38;4.50;;;9.00;54.70;;;;;;5076824;28;20025;-70
2021/04/30 01:21:55;;;;;;;8.93;5.38;;;8.90;55.00;;;;;;5073950;28;20082;-70
2021/04/30 01:24:22;;;;;;;7.00;5.03;;;8.90;55.10;;;;;;5073514;28;20088;-70
2021/04/30 01:26:48;;;;;;;7.90;5.40;;;8.90;55.30;;;;;;5060808;28;20032;-70
2021/04/30 01:29:14;;;;;;;10.98;5.43;;;8.90;55.40;;;;;;5082887;28;20033;-70
2021/04/30 01:31:41;;;;;;;7.75;4.80;;;8.90;55.50;;;;;;5076833;28;20032;-70
2021/04/30 01:34:07;;;;;;;9.10;5.05;;;8.90;55.60;;;;;;5075447;28;20387;-70
2021/04/30 01:36:33;;;;;;;10.57;5.97;;;8.90;55.90;;;;;;5076807;28;20033;-70
2021/04/30 01:39:02;;;;;;;6.90;4.63;;;8.90;56.30;;;;;;5076028;28;20045;-71
2021/04/30 01:41:28;;;;;;;8.07;5.07;;;8.90;55.70;;;;;;5081348;28;20019;-70
2021/04/30 01:43:54;;;;;;;6.95;4.70;;;8.90;56.00;;;;;;5078298;28;20020;-70
2021/04/30 01:46:20;;;;;;;8.45;5.47;;;9.00;56.20;;;;;;5070419;28;20621;-70
2021/04/30 01:48:45;;;;;;;8.40;5.15;;;8.90;56.00;;;;;;5073461;28;20078;-70
2021/04/30 01:51:12;;;;;;;8.77;5.47;;;8.90;56.20;;;;;;5076471;28;20028;-70
2021/04/30 01:53:38;;;;;;;8.02;5.03;;;8.90;56.20;;;;;;5076202;28;20107;-70
2021/04/30 01:56:10;;;;;;;8.13;5.05;;;8.90;56.40;;;;;;5069039;28;20042;-70
2021/04/30 01:58:36;;;;;;;8.77;5.57;;;8.90;56.40;;;;;;5075116;28;20021;-70
2021/04/30 02:01:03;;;;;;;8.93;5.47;;;8.90;56.50;;;;;;5074476;28;20024;-70
2021/04/30 02:03:30;;;;;;;6.68;4.55;;;8.90;56.30;;;;;;5079638;28;20024;-70
2021/04/30 02:05:55;;;;;;;6.20;4.50;;;8.90;56.50;;;;;;5067096;28;20407;-70
2021/04/30 02:08:22;;;;;;;7.88;4.88;;;8.90;56.50;;;;;;5085887;28;20020;-70
2021/04/30 02:10:48;;;;;;;6.40;4.15;;;8.90;56.50;;;;;;5077561;28;20036;-70
2021/04/30 02:13:19;;;;;;;7.93;5.00;;;8.90;56.30;;;;;;5073406;28;20024;-70
2021/04/30 02:15:47;;;;;;;6.38;4.53;;;8.90;56.20;;;;;;5075979;28;20088;-70
2021/04/30 02:18:13;;;;;;;6.65;4.47;;;8.80;56.30;;;;;;5079326;28;20029;-70
2021/04/30 02:20:38;;;;;;;8.82;5.32;;;8.80;56.20;;;;;;5079941;28;20402;-70
2021/04/30 02:23:05;;;;;;;7.95;5.13;;;8.80;56.50;;;;;;5078120;28;20071;-70
2021/04/30 02:25:31;;;;;;;7.57;5.00;;;8.70;56.40;;;;;;5079264;28;20440;-70
2021/04/30 02:27:58;;;;;;;7.38;4.93;;;8.80;56.70;;;;;;5078769;28;20032;-70
2021/04/30 02:30:26;;;;;;;7.97;5.13;;;8.80;56.50;;;;;;5079577;28;20076;-70
2021/04/30 02:32:53;;;;;;;7.78;5.40;;;8.80;56.50;;;;;;5079664;28;20020;-70
2021/04/30 02:35:20;;;;;;;9.35;5.18;;;8.80;56.50;;;;;;5078635;28;20033;-70
2021/04/30 02:37:46;;;;;;;7.35;5.18;;;8.80;56.50;;;;;;5078993;28;20060;-70
2021/04/30 02:40:17;;;;;;;7.80;5.20;;;8.80;56.50;;;;;;5060699;28;20054;-70
2021/04/30 02:42:44;;;;;;;7.90;5.03;;;8.70;56.40;;;;;;5078597;28;20074;-70
2021/04/30 02:45:12;;;;;;;8.30;5.45;;;8.70;56.40;;;;;;5075592;28;20521;-70
2021/04/30 02:47:40;;;;;;;10.10;5.93;;;8.60;56.40;;;;;;5087209;28;20020;-70
2021/04/30 02:50:07;;;;;;;10.45;5.30;;;8.50;56.70;;;;;;5077847;28;20024;-70
2021/04/30 02:52:33;;;;;;;8.88;5.80;;;8.50;57.00;;;;;;5078747;28;20395;-70
2021/04/30 02:54:59;;;;;;;7.82;5.05;;;8.50;57.10;;;;;;5071215;28;20033;-70
2021/04/30 02:57:27;;;;;;;9.65;5.90;;;8.50;57.20;;;;;;5073602;28;20028;-70
2021/04/30 02:59:53;;;;;;;7.00;5.10;;;8.50;57.50;;;;;;5066777;28;20029;-70
2021/04/30 03:02:19;;;;;;;8.10;5.78;;;8.60;57.50;;;;;;5074679;28;20035;-70
2021/04/30 03:04:45;;;;;;;7.93;5.28;;;8.60;57.50;;;;;;5072649;28;20475;-70
2021/04/30 03:07:11;;;;;;;8.63;5.53;;;8.60;57.60;;;;;;5077230;28;20016;-70
2021/04/30 03:09:36;;;;;;;6.72;4.50;;;8.60;57.50;;;;;;5079001;28;20039;-70
2021/04/30 03:12:02;;;;;;;8.38;5.60;;;8.60;57.40;;;;;;5062044;28;20025;-70
2021/04/30 03:14:28;;;;;;;6.90;5.05;;;8.60;57.40;;;;;;5078859;28;20386;-70
2021/04/30 03:16:54;;;;;;;9.10;5.80;;;8.60;57.40;;;;;;5073881;28;20037;-70
2021/04/30 03:19:20;;;;;;;8.90;5.30;;;8.60;57.40;;;;;;5078775;28;20465;-70
2021/04/30 03:21:46;;;;;;;6.85;5.07;;;8.60;57.50;;;;;;5077609;28;20020;-70
2021/04/30 03:24:12;;;;;;;10.05;5.35;;;8.50;57.30;;;;;;5078557;28;20078;-69
2021/04/30 03:26:38;;;;;;;9.43;5.65;;;8.50;57.20;;;;;;5076840;28;20021;-70
2021/04/30 03:29:04;;;;;;;7.80;5.35;;;8.50;57.30;;;;;;5072422;28;20040;-70
2021/04/30 03:31:30;;;;;;;9.07;5.65;;;8.40;57.20;;;;;;5078298;28;20027;-70
2021/04/30 03:33:56;;;;;;;8.70;5.70;;;8.50;57.50;;;;;;5077133;28;20032;-70
2021/04/30 03:36:23;;;;;;;10.27;6.38;;;8.40;57.50;;;;;;5065753;28;20036;-70
2021/04/30 03:38:49;;;;;;;9.60;6.30;;;8.30;57.60;;;;;;5069236;28;20051;-70
2021/04/30 03:41:16;;;;;;;9.50;5.47;;;8.30;57.90;;;;;;5069704;28;20036;-70
2021/04/30 03:43:43;;;;;;;8.18;5.85;;;8.40;58.10;;;;;;5078388;28;20021;-70
2021/04/30 03:46:09;;;;;;;11.02;6.57;;;8.40;58.00;;;;;;5071427;28;20081;-70
2021/04/30 03:48:35;;;;;;;9.68;6.68;;;8.40;58.20;;;;;;5078275;28;20020;-70
2021/04/30 03:51:01;;;;;;;9.95;6.40;;;8.40;58.20;;;;;;5063966;28;20024;-70
2021/04/30 03:53:27;;;;;;;8.90;6.20;;;8.40;58.10;;;;;;5076172;28;20407;-70
2021/04/30 03:55:53;;;;;;;9.43;6.75;;;8.30;58.20;;;;;;5071832;28;20024;-70
2021/04/30 03:58:20;;;;;;;10.75;6.85;;;8.30;58.20;;;;;;5077822;28;20051;-70
2021/04/30 04:00:46;;;;;;;7.90;5.78;;;8.30;58.40;;;;;;5077604;28;20103;-70
2021/04/30 04:03:12;;;;;;;11.20;6.40;;;8.30;58.50;;;;;;5075037;28;20120;-70
2021/04/30 04:05:37;;;;;;;10.20;6.38;;;8.30;58.50;;;;;;5076757;28;20051;-70
2021/04/30 04:08:05;;;;;;;9.57;5.90;;;8.30;58.30;;;;;;5068028;28;20037;-70
2021/04/30 04:10:31;;;;;;;10.88;6.90;;;8.30;58.30;;;;;;5076886;28;20021;-70
2021/04/30 04:12:57;;;;;;;10.13;6.28;;;8.20;58.20;;;;;;5077846;28;20061;-70
2021/04/30 04:15:23;;;;;;;11.00;7.00;;;8.20;58.40;;;;;;5072017;28;20523;-70
2021/04/30 04:17:48;;;;;;;9.13;7.15;;;8.10;58.30;;;;;;5069361;28;20051;-70
2021/04/30 04:20:14;;;;;;;10.85;7.10;;;8.10;58.40;;;;;;5076698;28;20115;-70
2021/04/30 04:22:40;;;;;;;9.98;7.18;;;8.10;58.50;;;;;;5077372;28;20074;-70
2021/04/30 04:25:07;;;;;;;10.95;7.50;;;8.10;58.60;;;;;;5072208;28;20025;-70
2021/04/30 04:27:33;;;;;;;9.48;6.68;;;8.00;58.50;;;;;;5070998;28;20108;-70
2021/04/30 04:30:00;;;;;;;10.75;7.30;;;8.10;58.80;;;;;;5061038;28;20086;-70
2021/04/30 04:32:26;;;;;;;9.27;6.68;;;8.10;58.70;;;;;;5071135;28;20060;-70
2021/04/30 04:34:52;;;;;;;11.40;7.40;;;8.10;58.70;;;;;;5075692;28;20074;-70
2021/04/30 04:37:18;;;;;;;10.32;7.10;;;8.00;58.80;;;;;;5085028;28;20044;-70
2021/04/30 04:39:44;;;;;;;10.35;6.28;;;8.00;59.10;;;;;;5075222;28;20747;-70
2021/04/30 04:42:10;;;;;;;10.77;7.40;;;8.10;59.20;;;;;;5075534;28;20162;-70
2021/04/30 04:44:36;;;;;;;11.05;7.55;;;8.10;59.00;;;;;;5077291;28;20511;-70
2021/04/30 04:47:02;;;;;;;13.07;8.60;;;8.10;59.20;;;;;;5071592;28;20088;-70
2021/04/30 04:49:28;;;;;;;10.18;7.38;;;8.10;59.00;;;;;;5074659;28;20457;-70
2021/04/30 04:51:54;;;;;;;12.95;8.70;;;8.10;59.20;;;;;;5074782;28;20040;-70
2021/04/30 04:54:21;;;;;;;11.50;7.90;;;8.10;59.40;;;;;;5076305;28;20060;-70
2021/04/30 04:56:47;;;;;;;11.57;8.35;;;8.20;59.40;;;;;;5077297;28;20028;-70
2021/04/30 04:59:13;;;;;;;13.75;8.15;;;8.20;59.20;;;;;;5077201;28;20023;-70
2021/04/30 05:01:39;;;;;;;11.18;7.90;;;8.20;59.10;;;;;;5070872;28;20952;-70
2021/04/30 05:04:05;;;;;;;12.23;8.10;;;8.20;59.30;;;;;;5076906;28;20479;-70
2021/04/30 05:06:31;;;;;;;12.00;8.13;;;8.20;59.30;;;;;;5071636;28;20063;-70
2021/04/30 05:08:57;;;;;;;11.40;7.95;;;8.10;59.30;;;;;;5076699;28;20032;-71
2021/04/30 05:11:22;;;;;;;12.70;8.25;;;8.20;59.70;;;;;;5072215;28;20093;-70
2021/04/30 05:13:48;;;;;;;11.60;7.57;;;8.30;60.00;;;;;;5076883;28;20032;-70
2021/04/30 05:16:14;;;;;;;13.73;7.80;;;8.30;60.00;;;;;;5071382;28;20384;-71
2021/04/30 05:18:42;;;;;;;17.55;8.75;;;8.40;60.10;;;;;;5065849;28;20024;-70
2021/04/30 05:21:11;;;;;;;12.90;8.63;;;8.40;59.90;;;;;;5075699;28;20024;-70
2021/04/30 05:23:38;;;;;;;12.52;8.50;;;8.50;59.70;;;;;;5076294;28;20013;-70
2021/04/30 05:26:04;;;;;;;11.90;8.07;;;8.50;59.60;;;;;;5076636;28;20146;-70
2021/04/30 05:28:31;;;;;;;11.80;8.10;;;8.50;59.70;;;;;;5075665;28;20017;-70
2021/04/30 05:30:57;;;;;;;12.38;8.50;;;8.50;59.70;;;;;;5076148;28;20040;-70
2021/04/30 05:33:23;;;;;;;10.48;7.15;;;8.50;59.80;;;;;;5076643;28;20028;-71
2021/04/30 05:35:49;;;;;;;12.60;7.95;;;8.50;59.70;;;;;;5073224;28;20036;-71
2021/04/30 05:38:15;;;;;;;12.30;8.70;;;8.60;60.10;;;;;;5074163;28;20029;-70
2021/04/30 05:40:41;;;;;;;10.38;7.22;;;8.60;60.00;;;;;;5066924;28;20059;-70
2021/04/30 05:43:07;;;;;;;12.18;8.68;;;8.60;59.90;;;;;;5076134;28;20082;-70
2021/04/30 05:45:32;;;;;;;10.40;7.68;;;8.60;59.80;;;;;;5073559;28;20487;-70
2021/04/30 05:47:58;;;;;;;11.00;8.25;;;8.60;59.90;;;;;;5072901;28;20031;-70
2021/04/30 05:50:24;;;;;;;11.77;7.40;;;8.60;59.90;;;;;;5081041;28;20033;-71
2021/04/30 05:52:50;;;;;;;13.65;9.38;;;8.60;60.10;;;;;;5077096;28;20542;-70
2021/04/30 05:55:16;;;;;;;13.50;8.98;;;8.70;60.30;;;;;;5079071;28;20020;-71
2021/04/30 05:57:42;;;;;;;11.93;9.13;;;8.70;60.50;;;;;;5079852;28;20027;-70
2021/04/30 06:00:10;;;;;;;10.93;7.78;;;8.80;60.30;;;;;;5079294;28;20886;-70
2021/04/30 06:02:37;;;;;;;12.82;8.40;;;8.80;60.30;;;;;;5079702;28;20040;-70
2021/04/30 06:05:07;;;;;;;12.63;7.93;;;8.80;60.30;;;;;;5076942;28;20021;-71
2021/04/30 06:07:33;;;;;;;12.25;8.02;;;8.80;60.10;;;;;;5078087;28;20478;-71
2021/04/30 06:09:58;;;;;;;17.42;10.80;;;8.90;60.30;;;;;;5076231;28;20103;-71
2021/04/30 06:12:24;;;;;;;16.65;11.20;;;8.90;60.40;;;;;;5078514;28;20036;-70
2021/04/30 06:14:50;;;;;;;15.88;10.60;;;9.00;60.10;;;;;;5079211;28;20036;-70
2021/04/30 06:17:18;;;;;;;16.58;9.13;;;9.00;60.30;;;;;;5073329;28;20035;-71
2021/04/30 06:19:45;;;;;;;16.00;9.80;;;9.00;60.30;;;;;;5079742;28;20431;-71
2021/04/30 06:22:11;;;;;;;15.35;9.48;;;9.10;60.60;;;;;;5079355;28;20016;-70
2021/04/30 06:24:37;;;;;;;12.88;8.50;;;9.20;60.70;;;;;;5071270;28;20372;-70
2021/04/30 06:27:03;;;;;;;12.23;8.65;;;9.30;60.50;;;;;;5069792;28;20029;-71
2021/04/30 06:29:28;;;;;;;13.20;9.50;;;9.30;60.40;;;;;;5071237;28;20021;-71
2021/04/30 06:31:56;;;;;;;11.23;7.90;;;9.40;60.30;;;;;;5078118;28;20059;-71
2021/04/30 06:34:25;;;;;;;12.27;8.25;;;9.40;60.30;;;;;;5079428;28;20082;-70
2021/04/30 06:36:54;;;;;;;13.95;8.70;;;9.40;60.70;;;;;;5074684;28;20033;-71
2021/04/30 06:39:21;;;;;;;12.75;8.73;;;9.50;60.60;;;;;;5079515;28;20044;-71
2021/04/30 06:41:46;;;;;;;11.63;8.02;;;9.60;60.90;;;;;;5075678;28;20499;-71
2021/04/30 06:44:13;;;;;;;14.38;9.20;;;9.70;61.50;;;;;;5079514;28;20036;-71
2021/04/30 06:46:39;;;;;;;11.55;8.88;;;9.90;61.80;;;;;;5077742;28;20016;-71
2021/04/30 06:49:05;;;;;;;10.95;7.85;;;10.10;61.80;;;;;;5079037;28;20025;-71
2021/04/30 06:51:31;;;;;;;13.80;9.48;;;10.30;62.20;;;;;;5076570;28;20095;-71
2021/04/30 06:53:57;;;;;;;12.57;8.52;;;10.50;62.00;;;;;;5076485;28;20104;-71
2021/04/30 06:56:25;;;;;;;11.45;8.73;;;10.70;62.00;;;;;;5060271;28;20028;-70
2021/04/30 06:58:51;;;;;;;11.27;8.30;;;10.90;62.10;;;;;;5066799;28;20064;-70
2021/04/30 07:01:18;;;;;;;15.00;9.98;;;11.00;61.70;;;;;;5076001;28;20025;-71
2021/04/30 07:03:46;;;;;;;11.00;8.32;;;11.20;61.30;;;;;;5078478;28;20039;-70
2021/04/30 07:06:16;;;;;;;11.15;8.57;;;11.20;60.40;;;;;;5078921;28;20013;-70
2021/04/30 07:08:42;;;;;;;13.68;8.63;;;11.20;60.60;;;;;;5079126;28;20041;-70
2021/04/30 07:11:08;;;;;;;10.95;8.00;;;11.30;60.80;;;;;;5068620;28;20029;-71
2021/04/30 07:13:37;;;;;;;13.43;9.73;;;11.50;61.20;;;;;;5078145;28;20440;-71
2021/04/30 07:16:05;;;;;;;11.90;8.60;;;11.80;62.00;;;;;;5078686;28;20031;-71
2021/04/30 07:18:31;;;;;;;11.93;9.18;;;12.20;63.10;;;;;;5077350;28;20028;-70
2021/04/30 07:20:57;;;;;;;12.35;9.65;;;12.80;64.00;;;;;;5071821;28;20024;-71
2021/04/30 07:23:23;;;;;;;12.73;8.63;;;13.30;64.20;;;;;;5071069;28;20048;-70
2021/04/30 07:25:50;;;;;;;12.75;9.00;;;13.80;63.50;;;;;;5067303;28;20031;-71
2021/04/30 07:28:17;;;;;;;13.25;10.23;;;14.20;62.90;;;;;;5078463;28;20035;-71
2021/04/30 07:30:43;;;;;;;10.73;8.38;;;14.60;61.40;;;;;;5075682;28;20035;-71
2021/04/30 07:33:09;;;;;;;14.27;9.75;;;14.70;60.60;;;;;;5067756;28;20032;-71
2021/04/30 07:35:34;;;;;;;12.57;8.85;;;14.80;59.70;;;;;;5078098;28;20076;-71
2021/04/30 07:38:01;;;;;;;10.57;7.75;;;15.00;59.60;;;;;;5069474;28;20072;-71
2021/04/30 07:40:27;;;;;;;10.60;7.95;;;15.20;58.90;;;;;;5066942;28;20016;-71
2021/04/30 07:42:53;;;;;;;12.07;8.57;;;15.40;58.40;;;;;;5077454;28;21390;-71
2021/04/30 07:45:18;;;;;;;10.95;7.75;;;15.60;57.20;;;;;;5078563;28;20151;-71
2021/04/30 07:47:44;;;;;;;10.63;7.35;;;15.70;57.10;;;;;;5078145;28;20078;-71
2021/04/30 07:50:10;;;;;;;12.77;7.70;;;15.90;57.20;;;;;;5077485;28;20475;-71
2021/04/30 07:52:36;;;;;;;11.02;7.35;;;16.40;57.90;;;;;;5076861;28;20043;-71
2021/04/30 07:55:03;;;;;;;10.88;7.88;;;16.70;57.30;;;;;;5074463;28;20372;-71
2021/04/30 07:57:30;;;;;;;10.30;8.45;;;17.20;56.60;;;;;;5072182;28;20020;-71
2021/04/30 07:59:56;;;;;;;9.68;7.45;;;17.40;55.60;;;;;;5076868;28;20070;-71
2021/04/30 08:02:22;;;;;;;14.00;8.15;;;17.70;55.10;;;;;;5073887;28;20032;-71
2021/04/30 08:04:48;;;;;;;9.18;7.70;;;18.00;52.20;;;;;;5076946;28;20024;-71
2021/04/30 08:07:15;;;;;;;10.82;7.70;;;18.00;51.80;;;;;;5077403;28;20402;-71
2021/04/30 08:09:42;;;;;;;8.80;7.07;;;18.00;51.00;;;;;;5076246;28;20021;-71
2021/04/30 08:12:08;;;;;;;9.85;7.65;;;18.20;51.20;;;;;;5089223;28;20024;-72
2021/04/30 08:14:35;;;;;;;8.65;6.85;;;18.40;47.60;;;;;;5078039;28;20020;-72
2021/04/30 08:17:00;;;;;;;10.45;6.88;;;17.90;46.70;;;;;;5076820;28;20071;-72
2021/04/30 08:19:27;;;;;;;9.73;7.35;;;17.60;47.00;;;;;;5072831;28;20024;-71
2021/04/30 08:21:53;;;;;;;9.90;6.63;;;17.50;46.80;;;;;;5072293;28;20024;-71
2021/04/30 08:24:20;;;;;;;11.48;8.00;;;17.50;47.40;;;;;;5076181;28;20020;-71
2021/04/30 08:26:47;;;;;;;10.45;7.13;;;17.50;47.50;;;;;;5077225;28;20032;-71
2021/04/30 08:29:13;;;;;;;8.25;6.00;;;17.50;47.60;;;;;;5077275;28;20033;-71
2021/04/30 08:31:39;;;;;;;9.80;5.82;;;17.60;47.50;;;;;;5077087;28;20021;-71
2021/04/30 08:34:05;;;;;;;9.02;6.68;;;17.90;47.70;;;;;;5077339;28;20035;-71
2021/04/30 08:36:31;;;;;;;8.82;6.45;;;18.20;47.90;;;;;;5077286;28;20074;-71
2021/04/30 08:38:57;;;;;;;8.80;6.50;;;18.40;47.20;;;;;;5076565;28;20127;-71
2021/04/30 08:41:26;;;;;;;9.90;6.85;;;18.60;44.40;;;;;;5076725;28;20491;-71
2021/04/30 08:43:52;;;;;;;9.65;6.45;;;18.70;46.70;;;;;;5075954;28;20029;-71
2021/04/30 08:46:19;;;;;;;10.18;6.30;;;19.20;46.70;;;;;;5079771;28;20070;-71
2021/04/30 08:48:45;;;;;;;10.93;6.03;;;19.50;47.20;;;;;;5076869;28;20052;-71
2021/04/30 08:51:12;;;;;;;9.48;7.00;;;20.00;45.90;;;;;;5076942;28;20032;-72
2021/04/30 08:53:42;;;;;;;8.63;5.88;;;20.40;46.30;;;;;;5076810;28;20025;-71
2021/04/30 08:56:08;;;;;;;8.13;5.22;;;20.60;45.90;;;;;;5082184;28;20032;-71
2021/04/30 08:58:37;;;;;;;5.90;4.45;;;20.80;44.50;;;;;;5081439;28;20131;-71
2021/04/30 09:01:04;;;;;;;6.75;5.18;;;21.10;45.20;;;;;;5076953;28;20020;-72
2021/04/30 09:03:33;;;;;;;7.30;5.47;;;21.50;44.90;;;;;;5075755;28;20029;-72
2021/04/30 09:05:59;;;;;;;9.32;6.00;;;21.80;44.20;;;;;;5076796;28;20028;-72
2021/04/30 09:08:26;;;;;;;8.82;5.50;;;22.10;44.20;;;;;;5076710;28;20036;-72
2021/04/30 09:10:52;;;;;;;7.82;5.75;;;22.40;42.10;;;;;;5064223;28;20021;-72
2021/04/30 09:13:22;;;;;;;9.30;6.80;;;22.40;42.30;;;;;;5080998;28;20024;-72
2021/04/30 09:16:03;;;;;;;9.02;6.18;;;22.70;38.60;;;;;;5081113;28;20021;-72
2021/04/30 09:18:32;;;;;;;9.18;5.80;;;22.80;39.10;;;;;;5077337;28;20399;-72
2021/04/30 09:21:09;;;;;;;10.43;5.95;;;22.70;38.70;;;;;;5088148;28;20028;-72
2021/04/30 09:23:48;;;;;;;7.32;4.85;;;23.00;39.50;;;;;;5084549;28;20024;-72
2021/04/30 09:26:31;;;;;;;5.95;4.60;;;23.40;39.70;;;;;;5080631;28;20024;-72
2021/04/30 09:29:05;;;;;;;7.35;5.30;;;23.50;39.40;;;;;;5080355;28;20104;-69
2021/04/30 09:31:42;;;;;;;9.45;5.93;;;23.50;38.50;;;;;;5072999;28;20094;-69
2021/04/30 09:34:23;;;;;;;6.70;4.22;;;23.50;36.50;;;;;;5080275;28;20039;-69
2021/04/30 09:37:10;;;;;;;6.00;4.03;;;23.70;38.20;;;;;;5071378;28;20036;-69
2021/04/30 09:39:55;;;;;;;6.53;4.80;;;24.00;38.10;;;;;;5077643;28;20479;-69
2021/04/30 09:42:25;;;;;;;4.65;3.15;;;24.40;38.60;;;;;;5079999;28;20024;-70
2021/04/30 09:45:13;;;;;;;6.78;4.13;;;24.70;37.40;;;;;;5079118;28;20459;-70
2021/04/30 09:47:39;;;;;;;6.30;4.25;;;25.00;36.40;;;;;;5075503;28;20077;-70
2021/04/30 09:50:08;;;;;;;6.15;4.65;;;25.30;33.80;;;;;;5079818;28;20024;-70
2021/04/30 09:52:34;;;;;;;4.93;3.05;;;25.40;32.60;;;;;;5079609;28;20044;-70
2021/04/30 09:55:01;;;;;;;5.72;4.03;;;25.30;35.10;;;;;;5078911;28;20025;-70
2021/04/30 09:57:28;;;;;;;6.90;3.65;;;25.60;35.10;;;;;;5075459;28;20027;-70
2021/04/30 10:00:00;;;;;;;6.85;4.75;;;25.90;34.80;;;;;;5074478;28;20029;-69
2021/04/30 10:02:26;;;;;;;5.70;3.90;;;25.90;33.70;;;;;;5077338;28;20081;-69
2021/04/30 10:04:54;;;;;;;6.10;4.25;;;25.60;33.30;;;;;;5070687;28;20060;-69
2021/04/30 10:07:40;;;;;;;6.55;3.70;;;25.50;30.50;;;;;;5069056;28;20024;-71
2021/04/30 10:10:12;;;;;;;6.13;3.58;;;25.70;32.90;;;;;;5079062;28;20033;-69
2021/04/30 10:12:40;;;;;;;6.30;4.30;;;26.00;32.50;;;;;;5078268;28;20119;-69
2021/04/30 10:15:09;;;;;;;4.78;3.70;;;26.50;32.90;;;;;;5079125;28;20089;-69
2021/04/30 10:17:36;;;;;;;6.80;4.20;;;26.70;32.40;;;;;;5079778;28;20035;-69
2021/04/30 10:20:04;;;;;;;5.68;3.97;;;26.80;31.60;;;;;;5079157;28;20071;-69
2021/04/30 10:22:30;;;;;;;6.97;4.20;;;26.80;31.60;;;;;;5078410;28;20028;-69
2021/04/30 10:24:58;;;;;;;6.50;4.03;;;27.00;30.20;;;;;;5079507;28;20025;-69
2021/04/30 10:27:34;;;;;;;5.43;3.75;;;26.90;30.70;;;;;;5073331;28;20039;-69
2021/04/30 10:30:15;;;;;;;5.85;4.35;;;26.50;30.00;;;;;;5079366;28;20531;-69
2021/04/30 10:32:47;;;;;;;7.25;4.40;;;26.00;29.00;;;;;;5079231;28;20048;-69
2021/04/30 10:35:17;;;;;;;4.97;3.25;;;25.90;29.10;;;;;;5079260;28;20036;-69
2021/04/30 10:37:45;;;;;;;5.47;4.00;;;25.90;29.80;;;;;;5078539;28;20472;-68
2021/04/30 10:40:13;;;;;;;5.80;3.72;;;26.10;29.50;;;;;;5078623;28;20036;-69
2021/04/30 10:42:45;;;;;;;6.22;3.63;;;26.20;30.00;;;;;;5080169;28;20066;-69
2021/04/30 10:45:15;;;;;;;;;;;26.60;30.50;;;;;;5079932;28;20067;-69
2021/04/30 10:47:42;;;;;;;5.55;3.60;;;27.00;30.90;;;;;;5066459;28;19904;-67
2021/04/30 10:50:11;;;;;;;5.75;3.90;;;27.30;30.60;;;;;;5078949;28;20429;-68
2021/04/30 10:52:37;;;;;;;6.40;3.40;;;27.80;30.10;;;;;;5078901;28;20111;-67
2021/04/30 10:55:08;;;;;;;4.93;3.45;;;28.10;30.30;;;;;;5078933;28;20082;-68
2021/04/30 10:57:55;;;;;;;5.32;3.70;;;28.40;30.50;;;;;;5077180;28;20403;-67
2021/04/30 11:00:37;;;;;;;6.05;3.70;;;28.70;29.80;;;;;;5067394;28;20024;-69
2021/04/30 11:03:23;;;;;;;;;;;28.70;29.60;;;;;;5076873;28;20107;-68
2021/04/30 11:05:53;;;;;;;5.68;3.60;;;28.90;28.40;;;;;;5078723;28;19908;-69
2021/04/30 11:08:19;;;;;;;7.43;3.83;;;28.80;28.20;;;;;;5076159;28;20024;-68
2021/04/30 11:10:45;;;;;;;4.85;3.10;;;28.60;28.10;;;;;;5078494;28;20032;-69
2021/04/30 11:13:15;;;;;;;4.53;3.15;;;28.50;28.30;;;;;;5077541;28;20047;-68
2021/04/30 11:15:47;;;;;;;5.53;3.50;;;28.60;28.80;;;;;;5076538;28;20043;-68
2021/04/30 11:18:21;;;;;;;4.25;2.63;;;29.10;28.80;;;;;;5073687;28;20017;-68
2021/04/30 11:21:09;;;;;;;5.18;3.17;;;29.40;28.70;;;;;;5077375;28;20093;-69
2021/04/30 11:23:47;;;;;;;4.95;3.42;;;29.50;28.20;;;;;;5073127;28;20115;-70
2021/04/30 11:26:17;;;;;;;4.43;2.70;;;29.60;27.90;;;;;;5078372;28;20025;-70
2021/04/30 11:28:43;;;;;;;5.20;3.80;;;29.60;27.70;;;;;;5078235;28;20045;-70
2021/04/30 11:31:14;;;;;;;5.85;4.07;;;29.30;27.30;;;;;;5077323;28;20035;-69
2021/04/30 11:34:02;;;;;;;6.63;3.75;;;28.80;26.20;;;;;;5077983;28;20383;-69
2021/04/30 11:36:28;;;;;;;5.00;2.88;;;28.20;26.40;;;;;;5065695;28;20043;-69
2021/04/30 11:38:56;;;;;;;4.25;2.90;;;28.10;27.40;;;;;;5075480;28;20048;-69
2021/04/30 11:41:22;;;;;;;6.72;4.97;;;28.40;28.00;;;;;;5073638;28;20029;-71
2021/04/30 11:43:52;;;;;;;5.85;3.42;;;28.60;27.90;;;;;;5073598;28;20023;-71
2021/04/30 11:46:18;;;;;;;5.85;2.92;;;28.50;27.20;;;;;;5073740;28;20031;-70
2021/04/30 11:48:46;;;;;;;4.65;3.28;;;28.30;27.30;;;;;;5077624;28;20021;-69
2021/04/30 11:51:14;;;;;;;4.57;2.65;;;28.00;27.10;;;;;;5073210;28;20580;-69
2021/04/30 11:53:43;;;;;;;5.57;3.60;;;27.70;27.20;;;;;;5074200;28;20491;-69
2021/04/30 11:56:10;;;;;;;4.25;2.83;;;27.40;27.00;;;;;;5068155;28;20381;-68
2021/04/30 11:58:41;;;;;;;6.53;3.90;;;26.90;26.70;;;;;;5061609;28;20033;-69
2021/04/30 12:01:08;;;;;;;4.40;3.00;;;26.70;26.90;;;;;;5077761;28;20021;-69
2021/04/30 12:03:53;;;;;;;4.57;2.75;;;26.00;26.80;;;;;;5077604;28;20410;-69
2021/04/30 12:06:23;;;;;;;5.30;3.40;;;26.20;28.00;;;;;;5069967;28;20032;-68
2021/04/30 12:08:52;;;;;;;5.68;2.63;;;26.40;27.80;;;;;;5071409;28;20077;-69
2021/04/30 12:11:28;;;;;;;5.07;3.00;;;26.50;27.60;;;;;;5072204;28;20039;-69
2021/04/30 12:13:57;;;;;;;6.32;3.20;;;26.20;27.20;;;;;;5073238;28;20033;-71
2021/04/30 12:16:23;;;;;;;4.60;2.60;;;25.80;26.90;;;;;;5074376;28;20066;-68
2021/04/30 12:18:53;;;;;;;4.78;3.10;;;25.50;27.10;;;;;;5082949;28;20028;-68
2021/04/30 12:21:34;;;;;;;5.40;2.78;;;25.20;26.90;;;;;;5074475;28;20036;-68
2021/04/30 12:24:04;;;;;;;5.38;2.42;;;24.30;26.50;;;;;;5067171;28;20518;-71
2021/04/30 12:26:37;;;;;;;5.25;2.72;;;23.70;26.90;;;;;;5075631;28;20610;-71
2021/04/30 12:29:11;;;;;;;;;;;23.60;27.30;;;;;;5076699;28;20403;-71
2021/04/30 12:31:39;;;;;;;7.90;2.78;;;23.40;27.60;;;;;;5067254;28;19915;-70
2021/04/30 12:34:05;;;;;;;4.32;2.67;;;23.30;27.90;;;;;;5077218;28;20039;-69
2021/04/30 12:36:33;;;;;;;5.90;3.13;;;23.00;27.70;;;;;;5076896;28;20016;-69
2021/04/30 12:39:03;;;;;;;4.57;2.78;;;22.90;28.00;;;;;;5076856;28;20079;-70
2021/04/30 12:41:34;;;;;;;5.05;3.45;;;22.90;28.20;;;;;;5076814;28;20074;-69
2021/04/30 12:44:06;;;;;;;4.40;2.83;;;22.80;28.30;;;;;;5077204;28;20024;-69
2021/04/30 12:46:35;;;;;;;5.25;2.55;;;22.60;28.50;;;;;;5063737;28;20055;-69
2021/04/30 12:49:16;;;;;;;6.53;3.03;;;22.60;28.70;;;;;;5077051;28;20063;-69
2021/04/30 12:51:50;;;;;;;7.20;3.10;;;22.40;28.90;;;;;;5075585;28;20036;-69
2021/04/30 12:54:17;;;;;;;4.72;3.00;;;22.20;28.80;;;;;;5077086;28;20039;-69